sensor_id;sensor_type;location;lat;lon;timestamp;P1;durP1;ratioP1;P2;durP2;ratioP2
74213;SDS011;62576;55.694;37.494;2023-05-07T00:00:48;7.20;;;3.63;;
74213;SDS011;62576;55.694;37.494;2023-05-07T00:03:19;10.00;;;4.00;;
74213;SDS011;62576;55.694;37.494;2023-05-07T00:05:51;8.55;;;3.70;;
74213;SDS011;62576;55.694;37.494;2023-05-07T00:08:25;12.10;;;3.78;;
74213;SDS011;62576;55.694;37.494;2023-05-07T00:10:55;9.70;;;4.10;;
74213;SDS011;62576;55.694;37.494;2023-05-07T00:13:26;7.78;;;3.47;;
74213;SDS011;62576;55.694;37.494;2023-05-07T00:15:58;8.57;;;3.50;;
74213;SDS011;62576;55.694;37.494;2023-05-07T00:18:28;9.68;;;4.10;;
74213;SDS011;62576;55.694;37.494;2023-05-07T00:20:58;9.57;;;4.10;;
74213;SDS011;62576;55.694;37.494;2023-05-07T00:23:30;8.70;;;3.42;;
74213;SDS011;62576;55.694;37.494;2023-05-07T00:26:00;7.80;;;3.67;;
74213;SDS011;62576;55.694;37.494;2023-05-07T00:28:30;10.48;;;3.22;;
74213;SDS011;62576;55.694;37.494;2023-05-07T00:30:59;9.45;;;3.63;;
74213;SDS011;62576;55.694;37.494;2023-05-07T00:33:29;7.85;;;3.80;;
74213;SDS011;62576;55.694;37.494;2023-05-07T00:35:59;9.48;;;3.80;;
74213;SDS011;62576;55.694;37.494;2023-05-07T00:38:27;6.93;;;3.25;;
74213;SDS011;62576;55.694;37.494;2023-05-07T00:40:58;9.95;;;3.42;;
74213;SDS011;62576;55.694;37.494;2023-05-07T00:43:28;6.90;;;4.07;;
74213;SDS011;62576;55.694;37.494;2023-05-07T00:45:58;7.38;;;3.30;;
74213;SDS011;62576;55.694;37.494;2023-05-07T00:48:28;8.50;;;3.42;;
74213;SDS011;62576;55.694;37.494;2023-05-07T00:50:59;9.63;;;4.13;;
74213;SDS011;62576;55.694;37.494;2023-05-07T00:53:29;9.35;;;3.75;;
74213;SDS011;62576;55.694;37.494;2023-05-07T00:56:01;8.68;;;4.13;;
74213;SDS011;62576;55.694;37.494;2023-05-07T00:58:31;8.52;;;3.47;;
74213;SDS011;62576;55.694;37.494;2023-05-07T01:01:01;7.13;;;3.42;;
74213;SDS011;62576;55.694;37.494;2023-05-07T01:03:31;7.47;;;3.45;;
74213;SDS011;62576;55.694;37.494;2023-05-07T01:06:01;8.93;;;3.50;;
74213;SDS011;62576;55.694;37.494;2023-05-07T01:08:33;9.60;;;3.75;;
74213;SDS011;62576;55.694;37.494;2023-05-07T01:11:06;6.88;;;3.53;;
74213;SDS011;62576;55.694;37.494;2023-05-07T01:13:36;6.68;;;3.58;;
74213;SDS011;62576;55.694;37.494;2023-05-07T01:16:06;7.60;;;3.75;;
74213;SDS011;62576;55.694;37.494;2023-05-07T01:18:39;8.25;;;3.90;;
74213;SDS011;62576;55.694;37.494;2023-05-07T01:21:09;7.85;;;3.78;;
74213;SDS011;62576;55.694;37.494;2023-05-07T01:23:42;9.15;;;3.47;;
74213;SDS011;62576;55.694;37.494;2023-05-07T01:26:15;10.23;;;4.20;;
74213;SDS011;62576;55.694;37.494;2023-05-07T01:28:47;11.52;;;3.70;;
74213;SDS011;62576;55.694;37.494;2023-05-07T01:31:17;8.18;;;3.33;;
74213;SDS011;62576;55.694;37.494;2023-05-07T01:33:47;12.52;;;3.65;;
74213;SDS011;62576;55.694;37.494;2023-05-07T01:36:19;8.02;;;4.00;;
74213;SDS011;62576;55.694;37.494;2023-05-07T01:38:52;8.68;;;4.10;;
74213;SDS011;62576;55.694;37.494;2023-05-07T01:41:23;7.60;;;3.70;;
74213;SDS011;62576;55.694;37.494;2023-05-07T01:43:52;6.70;;;3.80;;
74213;SDS011;62576;55.694;37.494;2023-05-07T01:46:24;9.77;;;3.53;;
74213;SDS011;62576;55.694;37.494;2023-05-07T01:48:56;10.00;;;3.50;;
74213;SDS011;62576;55.694;37.494;2023-05-07T01:51:26;8.85;;;3.50;;
74213;SDS011;62576;55.694;37.494;2023-05-07T01:53:58;7.95;;;3.53;;
74213;SDS011;62576;55.694;37.494;2023-05-07T01:56:28;11.38;;;3.70;;
74213;SDS011;62576;55.694;37.494;2023-05-07T01:58:58;7.25;;;3.47;;
74213;SDS011;62576;55.694;37.494;2023-05-07T02:01:28;8.77;;;3.65;;
74213;SDS011;62576;55.694;37.494;2023-05-07T02:03:58;8.10;;;3.65;;
74213;SDS011;62576;55.694;37.494;2023-05-07T02:06:28;10.52;;;3.63;;
74213;SDS011;62576;55.694;37.494;2023-05-07T02:09:00;11.70;;;3.50;;
74213;SDS011;62576;55.694;37.494;2023-05-07T02:11:30;9.63;;;3.70;;
74213;SDS011;62576;55.694;37.494;2023-05-07T02:14:00;9.38;;;3.60;;
74213;SDS011;62576;55.694;37.494;2023-05-07T02:16:30;6.68;;;3.67;;
74213;SDS011;62576;55.694;37.494;2023-05-07T02:19:00;8.45;;;3.63;;
74213;SDS011;62576;55.694;37.494;2023-05-07T02:21:30;10.38;;;3.60;;
74213;SDS011;62576;55.694;37.494;2023-05-07T02:24:02;10.77;;;3.78;;
74213;SDS011;62576;55.694;37.494;2023-05-07T02:26:32;9.00;;;3.83;;
74213;SDS011;62576;55.694;37.494;2023-05-07T02:29:02;9.70;;;4.40;;
74213;SDS011;62576;55.694;37.494;2023-05-07T02:31:29;8.57;;;4.35;;
74213;SDS011;62576;55.694;37.494;2023-05-07T02:33:59;12.38;;;4.70;;
74213;SDS011;62576;55.694;37.494;2023-05-07T02:36:29;8.27;;;3.95;;
74213;SDS011;62576;55.694;37.494;2023-05-07T02:38:56;9.73;;;4.00;;
74213;SDS011;62576;55.694;37.494;2023-05-07T02:41:28;9.52;;;4.35;;
74213;SDS011;62576;55.694;37.494;2023-05-07T02:43:58;11.57;;;3.47;;
74213;SDS011;62576;55.694;37.494;2023-05-07T02:46:28;8.90;;;3.70;;
74213;SDS011;62576;55.694;37.494;2023-05-07T02:48:58;10.10;;;3.75;;
74213;SDS011;62576;55.694;37.494;2023-05-07T02:51:30;8.13;;;4.00;;
74213;SDS011;62576;55.694;37.494;2023-05-07T02:54:02;11.07;;;3.70;;
74213;SDS011;62576;55.694;37.494;2023-05-07T02:56:34;7.07;;;3.40;;
74213;SDS011;62576;55.694;37.494;2023-05-07T02:59:04;8.35;;;3.00;;
74213;SDS011;62576;55.694;37.494;2023-05-07T03:01:34;7.57;;;3.75;;
74213;SDS011;62576;55.694;37.494;2023-05-07T03:04:04;9.15;;;4.40;;
74213;SDS011;62576;55.694;37.494;2023-05-07T03:06:34;10.18;;;3.75;;
74213;SDS011;62576;55.694;37.494;2023-05-07T03:09:04;9.07;;;4.25;;
74213;SDS011;62576;55.694;37.494;2023-05-07T03:11:36;8.18;;;3.90;;
74213;SDS011;62576;55.694;37.494;2023-05-07T03:14:06;8.35;;;3.60;;
74213;SDS011;62576;55.694;37.494;2023-05-07T03:16:36;10.57;;;3.92;;
74213;SDS011;62576;55.694;37.494;2023-05-07T03:19:06;8.30;;;3.70;;
74213;SDS011;62576;55.694;37.494;2023-05-07T03:21:36;7.05;;;3.72;;
74213;SDS011;62576;55.694;37.494;2023-05-07T03:24:05;7.53;;;4.40;;
74213;SDS011;62576;55.694;37.494;2023-05-07T03:26:37;7.70;;;3.65;;
74213;SDS011;62576;55.694;37.494;2023-05-07T03:29:07;7.75;;;3.78;;
74213;SDS011;62576;55.694;37.494;2023-05-07T03:31:37;8.80;;;3.10;;
74213;SDS011;62576;55.694;37.494;2023-05-07T03:34:07;6.75;;;3.10;;
74213;SDS011;62576;55.694;37.494;2023-05-07T03:36:36;6.40;;;2.90;;
74213;SDS011;62576;55.694;37.494;2023-05-07T03:39:04;5.30;;;2.90;;
74213;SDS011;62576;55.694;37.494;2023-05-07T03:41:34;7.72;;;2.88;;
74213;SDS011;62576;55.694;37.494;2023-05-07T03:44:05;8.02;;;3.20;;
74213;SDS011;62576;55.694;37.494;2023-05-07T03:46:36;6.10;;;3.10;;
74213;SDS011;62576;55.694;37.494;2023-05-07T03:49:05;6.68;;;3.42;;
74213;SDS011;62576;55.694;37.494;2023-05-07T03:51:36;8.30;;;2.95;;
74213;SDS011;62576;55.694;37.494;2023-05-07T03:54:06;5.68;;;2.97;;
74213;SDS011;62576;55.694;37.494;2023-05-07T03:56:36;6.07;;;2.90;;
74213;SDS011;62576;55.694;37.494;2023-05-07T03:59:08;10.32;;;4.13;;
74213;SDS011;62576;55.694;37.494;2023-05-07T04:01:38;7.32;;;3.00;;
74213;SDS011;62576;55.694;37.494;2023-05-07T04:04:07;8.48;;;2.80;;
74213;SDS011;62576;55.694;37.494;2023-05-07T04:06:38;6.63;;;3.55;;
74213;SDS011;62576;55.694;37.494;2023-05-07T04:09:07;7.20;;;3.00;;
74213;SDS011;62576;55.694;37.494;2023-05-07T04:11:38;7.25;;;3.45;;
74213;SDS011;62576;55.694;37.494;2023-05-07T04:14:09;6.82;;;3.08;;
74213;SDS011;62576;55.694;37.494;2023-05-07T04:16:39;9.93;;;2.70;;
74213;SDS011;62576;55.694;37.494;2023-05-07T04:19:09;5.68;;;3.22;;
74213;SDS011;62576;55.694;37.494;2023-05-07T04:21:39;6.15;;;2.78;;
74213;SDS011;62576;55.694;37.494;2023-05-07T04:24:09;6.30;;;2.67;;
74213;SDS011;62576;55.694;37.494;2023-05-07T04:26:39;6.00;;;3.40;;
74213;SDS011;62576;55.694;37.494;2023-05-07T04:29:11;4.85;;;2.50;;
74213;SDS011;62576;55.694;37.494;2023-05-07T04:31:43;5.30;;;2.60;;
74213;SDS011;62576;55.694;37.494;2023-05-07T04:41:14;6.68;;;2.80;;
74213;SDS011;62576;55.694;37.494;2023-05-07T04:43:44;6.22;;;3.00;;
74213;SDS011;62576;55.694;37.494;2023-05-07T04:46:16;6.40;;;3.20;;
74213;SDS011;62576;55.694;37.494;2023-05-07T04:48:45;7.32;;;2.80;;
74213;SDS011;62576;55.694;37.494;2023-05-07T04:51:15;5.85;;;2.78;;
74213;SDS011;62576;55.694;37.494;2023-05-07T04:53:45;6.80;;;3.58;;
74213;SDS011;62576;55.694;37.494;2023-05-07T04:56:15;10.50;;;3.58;;
74213;SDS011;62576;55.694;37.494;2023-05-07T04:58:45;6.15;;;3.28;;
74213;SDS011;62576;55.694;37.494;2023-05-07T05:01:17;10.25;;;2.80;;
74213;SDS011;62576;55.694;37.494;2023-05-07T05:03:47;4.43;;;2.30;;
74213;SDS011;62576;55.694;37.494;2023-05-07T05:06:17;4.93;;;2.40;;
74213;SDS011;62576;55.694;37.494;2023-05-07T05:08:47;4.55;;;2.38;;
74213;SDS011;62576;55.694;37.494;2023-05-07T05:11:17;5.13;;;2.60;;
74213;SDS011;62576;55.694;37.494;2023-05-07T05:13:47;7.63;;;2.00;;
74213;SDS011;62576;55.694;37.494;2023-05-07T05:16:19;4.13;;;2.50;;
74213;SDS011;62576;55.694;37.494;2023-05-07T05:18:49;5.20;;;2.47;;
74213;SDS011;62576;55.694;37.494;2023-05-07T05:21:20;5.05;;;2.30;;
74213;SDS011;62576;55.694;37.494;2023-05-07T05:23:50;7.40;;;3.08;;
74213;SDS011;62576;55.694;37.494;2023-05-07T05:26:21;4.25;;;2.20;;
74213;SDS011;62576;55.694;37.494;2023-05-07T05:28:50;5.55;;;2.05;;
74213;SDS011;62576;55.694;37.494;2023-05-07T05:31:22;6.13;;;2.20;;
74213;SDS011;62576;55.694;37.494;2023-05-07T05:33:52;7.22;;;2.50;;
74213;SDS011;62576;55.694;37.494;2023-05-07T05:36:22;4.38;;;2.22;;
74213;SDS011;62576;55.694;37.494;2023-05-07T05:38:52;4.97;;;2.00;;
74213;SDS011;62576;55.694;37.494;2023-05-07T05:41:22;6.38;;;2.20;;
74213;SDS011;62576;55.694;37.494;2023-05-07T05:43:53;4.88;;;2.65;;
74213;SDS011;62576;55.694;37.494;2023-05-07T05:46:24;9.88;;;4.00;;
74213;SDS011;62576;55.694;37.494;2023-05-07T05:48:54;7.30;;;3.15;;
74213;SDS011;62576;55.694;37.494;2023-05-07T05:51:24;3.88;;;2.40;;
74213;SDS011;62576;55.694;37.494;2023-05-07T05:53:55;6.50;;;1.95;;
74213;SDS011;62576;55.694;37.494;2023-05-07T05:56:24;4.75;;;1.95;;
74213;SDS011;62576;55.694;37.494;2023-05-07T05:58:55;3.80;;;2.00;;
74213;SDS011;62576;55.694;37.494;2023-05-07T06:01:27;2.70;;;1.80;;
74213;SDS011;62576;55.694;37.494;2023-05-07T06:03:57;4.50;;;2.30;;
74213;SDS011;62576;55.694;37.494;2023-05-07T06:06:27;5.00;;;1.92;;
74213;SDS011;62576;55.694;37.494;2023-05-07T06:08:57;4.50;;;1.77;;
74213;SDS011;62576;55.694;37.494;2023-05-07T06:11:27;3.35;;;1.92;;
74213;SDS011;62576;55.694;37.494;2023-05-07T06:13:58;7.60;;;2.08;;
74213;SDS011;62576;55.694;37.494;2023-05-07T06:16:29;4.93;;;2.30;;
74213;SDS011;62576;55.694;37.494;2023-05-07T06:19:00;3.80;;;1.88;;
74213;SDS011;62576;55.694;37.494;2023-05-07T06:21:30;3.75;;;2.00;;
74213;SDS011;62576;55.694;37.494;2023-05-07T06:23:59;6.50;;;2.00;;
74213;SDS011;62576;55.694;37.494;2023-05-07T06:26:29;3.28;;;2.00;;
74213;SDS011;62576;55.694;37.494;2023-05-07T06:28:59;5.72;;;2.30;;
74213;SDS011;62576;55.694;37.494;2023-05-07T06:31:31;4.20;;;2.25;;
74213;SDS011;62576;55.694;37.494;2023-05-07T06:34:01;5.53;;;2.10;;
74213;SDS011;62576;55.694;37.494;2023-05-07T06:36:34;5.85;;;2.17;;
74213;SDS011;62576;55.694;37.494;2023-05-07T06:39:04;4.68;;;2.40;;
74213;SDS011;62576;55.694;37.494;2023-05-07T06:41:34;6.18;;;2.20;;
74213;SDS011;62576;55.694;37.494;2023-05-07T06:44:04;3.78;;;2.08;;
74213;SDS011;62576;55.694;37.494;2023-05-07T06:46:35;4.57;;;1.70;;
74213;SDS011;62576;55.694;37.494;2023-05-07T06:49:06;6.05;;;2.10;;
74213;SDS011;62576;55.694;37.494;2023-05-07T06:51:36;4.57;;;1.83;;
74213;SDS011;62576;55.694;37.494;2023-05-07T06:54:06;9.55;;;2.28;;
74213;SDS011;62576;55.694;37.494;2023-05-07T06:56:37;3.15;;;1.77;;
74213;SDS011;62576;55.694;37.494;2023-05-07T06:59:06;4.85;;;2.00;;
74213;SDS011;62576;55.694;37.494;2023-05-07T07:01:38;2.42;;;1.70;;
74213;SDS011;62576;55.694;37.494;2023-05-07T07:04:08;2.60;;;1.60;;
74213;SDS011;62576;55.694;37.494;2023-05-07T07:06:38;5.85;;;1.90;;
74213;SDS011;62576;55.694;37.494;2023-05-07T07:09:08;4.88;;;2.03;;
74213;SDS011;62576;55.694;37.494;2023-05-07T07:11:38;2.65;;;1.80;;
74213;SDS011;62576;55.694;37.494;2023-05-07T07:14:08;2.97;;;1.70;;
74213;SDS011;62576;55.694;37.494;2023-05-07T07:16:39;4.85;;;1.55;;
74213;SDS011;62576;55.694;37.494;2023-05-07T07:19:10;4.47;;;1.83;;
74213;SDS011;62576;55.694;37.494;2023-05-07T07:21:43;4.38;;;2.00;;
74213;SDS011;62576;55.694;37.494;2023-05-07T07:24:14;4.63;;;2.05;;
74213;SDS011;62576;55.694;37.494;2023-05-07T07:26:55;4.95;;;1.83;;
74213;SDS011;62576;55.694;37.494;2023-05-07T07:33:24;2.60;;;1.50;;
74213;SDS011;62576;55.694;37.494;2023-05-07T07:46:37;4.05;;;1.77;;
74213;SDS011;62576;55.694;37.494;2023-05-07T07:49:08;2.78;;;1.90;;
74213;SDS011;62576;55.694;37.494;2023-05-07T07:51:38;5.28;;;2.10;;
74213;SDS011;62576;55.694;37.494;2023-05-07T07:54:09;5.63;;;1.92;;
74213;SDS011;62576;55.694;37.494;2023-05-07T07:56:38;6.70;;;2.00;;
74213;SDS011;62576;55.694;37.494;2023-05-07T07:59:09;3.78;;;2.00;;
74213;SDS011;62576;55.694;37.494;2023-05-07T08:01:38;3.78;;;1.83;;
74213;SDS011;62576;55.694;37.494;2023-05-07T08:04:10;2.88;;;1.80;;
74213;SDS011;62576;55.694;37.494;2023-05-07T08:06:40;3.28;;;2.08;;
74213;SDS011;62576;55.694;37.494;2023-05-07T08:09:10;3.75;;;2.08;;
74213;SDS011;62576;55.694;37.494;2023-05-07T08:11:41;4.00;;;1.98;;
74213;SDS011;62576;55.694;37.494;2023-05-07T08:14:11;3.42;;;1.70;;
74213;SDS011;62576;55.694;37.494;2023-05-07T08:16:41;2.50;;;1.60;;
74213;SDS011;62576;55.694;37.494;2023-05-07T08:19:13;2.70;;;1.92;;
74213;SDS011;62576;55.694;37.494;2023-05-07T08:21:43;3.50;;;1.90;;
74213;SDS011;62576;55.694;37.494;2023-05-07T08:24:16;2.65;;;1.63;;
74213;SDS011;62576;55.694;37.494;2023-05-07T08:26:47;4.28;;;1.80;;
74213;SDS011;62576;55.694;37.494;2023-05-07T08:29:17;4.97;;;2.20;;
74213;SDS011;62576;55.694;37.494;2023-05-07T08:31:48;7.20;;;2.67;;
74213;SDS011;62576;55.694;37.494;2023-05-07T08:34:19;3.00;;;1.38;;
74213;SDS011;62576;55.694;37.494;2023-05-07T08:36:50;4.80;;;1.67;;
74213;SDS011;62576;55.694;37.494;2023-05-07T08:39:21;2.88;;;1.60;;
74213;SDS011;62576;55.694;37.494;2023-05-07T08:41:51;2.03;;;1.50;;
74213;SDS011;62576;55.694;37.494;2023-05-07T08:44:25;3.20;;;1.50;;
74213;SDS011;62576;55.694;37.494;2023-05-07T08:46:56;3.67;;;1.55;;
74213;SDS011;62576;55.694;37.494;2023-05-07T08:49:29;2.88;;;1.50;;
74213;SDS011;62576;55.694;37.494;2023-05-07T08:51:59;6.53;;;2.03;;
74213;SDS011;62576;55.694;37.494;2023-05-07T08:54:30;2.58;;;1.40;;
74213;SDS011;62576;55.694;37.494;2023-05-07T08:57:01;3.47;;;1.50;;
74213;SDS011;62576;55.694;37.494;2023-05-07T08:59:30;2.33;;;1.50;;
74213;SDS011;62576;55.694;37.494;2023-05-07T09:02:01;3.15;;;1.55;;
74213;SDS011;62576;55.694;37.494;2023-05-07T09:04:33;4.32;;;1.70;;
74213;SDS011;62576;55.694;37.494;2023-05-07T09:07:03;3.47;;;1.75;;
74213;SDS011;62576;55.694;37.494;2023-05-07T09:09:33;6.32;;;1.48;;
74213;SDS011;62576;55.694;37.494;2023-05-07T09:12:03;2.72;;;1.80;;
74213;SDS011;62576;55.694;37.494;2023-05-07T09:14:34;4.13;;;1.75;;
74213;SDS011;62576;55.694;37.494;2023-05-07T09:17:04;3.55;;;1.77;;
74213;SDS011;62576;55.694;37.494;2023-05-07T09:19:36;3.05;;;2.00;;
74213;SDS011;62576;55.694;37.494;2023-05-07T09:22:06;3.78;;;1.75;;
74213;SDS011;62576;55.694;37.494;2023-05-07T09:24:36;4.90;;;1.70;;
74213;SDS011;62576;55.694;37.494;2023-05-07T09:27:07;2.42;;;1.50;;
74213;SDS011;62576;55.694;37.494;2023-05-07T09:29:41;5.03;;;1.33;;
74213;SDS011;62576;55.694;37.494;2023-05-07T09:32:12;2.63;;;1.40;;
74213;SDS011;62576;55.694;37.494;2023-05-07T09:34:45;3.10;;;1.25;;
74213;SDS011;62576;55.694;37.494;2023-05-07T09:37:15;3.42;;;1.50;;
74213;SDS011;62576;55.694;37.494;2023-05-07T09:39:46;4.75;;;1.40;;
74213;SDS011;62576;55.694;37.494;2023-05-07T09:42:22;5.43;;;1.70;;
74213;SDS011;62576;55.694;37.494;2023-05-07T09:44:52;4.40;;;1.60;;
74213;SDS011;62576;55.694;37.494;2023-05-07T09:47:23;2.00;;;1.50;;
74213;SDS011;62576;55.694;37.494;2023-05-07T09:49:56;2.33;;;1.60;;
74213;SDS011;62576;55.694;37.494;2023-05-07T09:52:27;2.10;;;1.50;;
74213;SDS011;62576;55.694;37.494;2023-05-07T09:55:02;4.95;;;1.45;;
74213;SDS011;62576;55.694;37.494;2023-05-07T09:57:34;6.60;;;2.35;;
74213;SDS011;62576;55.694;37.494;2023-05-07T10:00:06;4.18;;;1.88;;
74213;SDS011;62576;55.694;37.494;2023-05-07T10:02:37;4.97;;;1.60;;
74213;SDS011;62576;55.694;37.494;2023-05-07T10:05:16;2.53;;;1.50;;
74213;SDS011;62576;55.694;37.494;2023-05-07T10:07:47;3.80;;;1.73;;
74213;SDS011;62576;55.694;37.494;2023-05-07T10:10:18;2.50;;;1.52;;
74213;SDS011;62576;55.694;37.494;2023-05-07T10:12:49;3.05;;;1.30;;
74213;SDS011;62576;55.694;37.494;2023-05-07T10:15:20;2.30;;;1.60;;
74213;SDS011;62576;55.694;37.494;2023-05-07T10:17:52;2.22;;;1.45;;
74213;SDS011;62576;55.694;37.494;2023-05-07T10:20:25;2.53;;;1.50;;
74213;SDS011;62576;55.694;37.494;2023-05-07T10:22:56;3.15;;;1.58;;
74213;SDS011;62576;55.694;37.494;2023-05-07T10:25:29;2.38;;;1.52;;
74213;SDS011;62576;55.694;37.494;2023-05-07T10:28:01;3.42;;;1.70;;
74213;SDS011;62576;55.694;37.494;2023-05-07T10:30:36;4.97;;;1.70;;
74213;SDS011;62576;55.694;37.494;2023-05-07T10:33:17;2.85;;;1.40;;
74213;SDS011;62576;55.694;37.494;2023-05-07T10:35:55;4.47;;;1.90;;
74213;SDS011;62576;55.694;37.494;2023-05-07T10:38:28;2.55;;;1.33;;
74213;SDS011;62576;55.694;37.494;2023-05-07T10:40:58;2.72;;;1.20;;
74213;SDS011;62576;55.694;37.494;2023-05-07T10:43:37;3.17;;;1.50;;
74213;SDS011;62576;55.694;37.494;2023-05-07T10:46:10;3.38;;;1.50;;
74213;SDS011;62576;55.694;37.494;2023-05-07T10:51:42;1.73;;;1.25;;
74213;SDS011;62576;55.694;37.494;2023-05-07T10:56:58;4.22;;;1.40;;
74213;SDS011;62576;55.694;37.494;2023-05-07T11:00:40;2.35;;;1.60;;
74213;SDS011;62576;55.694;37.494;2023-05-07T11:03:15;3.05;;;1.70;;
74213;SDS011;62576;55.694;37.494;2023-05-07T11:05:46;5.53;;;1.80;;
74213;SDS011;62576;55.694;37.494;2023-05-07T11:08:18;2.65;;;1.65;;
74213;SDS011;62576;55.694;37.494;2023-05-07T11:10:50;3.35;;;1.80;;
74213;SDS011;62576;55.694;37.494;2023-05-07T11:18:58;2.00;;;1.60;;
74213;SDS011;62576;55.694;37.494;2023-05-07T11:21:31;2.72;;;1.75;;
74213;SDS011;62576;55.694;37.494;2023-05-07T11:24:05;4.55;;;1.67;;
74213;SDS011;62576;55.694;37.494;2023-05-07T11:26:43;3.00;;;1.80;;
74213;SDS011;62576;55.694;37.494;2023-05-07T11:29:15;2.63;;;1.80;;
74213;SDS011;62576;55.694;37.494;2023-05-07T11:31:50;2.50;;;1.60;;
74213;SDS011;62576;55.694;37.494;2023-05-07T11:34:23;4.25;;;1.92;;
74213;SDS011;62576;55.694;37.494;2023-05-07T11:36:54;3.85;;;1.80;;
74213;SDS011;62576;55.694;37.494;2023-05-07T11:39:28;3.35;;;1.95;;
74213;SDS011;62576;55.694;37.494;2023-05-07T11:42:00;4.43;;;1.95;;
74213;SDS011;62576;55.694;37.494;2023-05-07T11:47:17;7.65;;;2.10;;
74213;SDS011;62576;55.694;37.494;2023-05-07T11:49:47;4.80;;;2.20;;
74213;SDS011;62576;55.694;37.494;2023-05-07T11:52:19;5.05;;;1.90;;
74213;SDS011;62576;55.694;37.494;2023-05-07T11:54:52;3.20;;;1.60;;
74213;SDS011;62576;55.694;37.494;2023-05-07T11:57:23;2.65;;;1.58;;
74213;SDS011;62576;55.694;37.494;2023-05-07T11:59:53;4.03;;;1.70;;
74213;SDS011;62576;55.694;37.494;2023-05-07T12:02:24;2.63;;;1.52;;
74213;SDS011;62576;55.694;37.494;2023-05-07T12:04:54;2.65;;;1.70;;
74213;SDS011;62576;55.694;37.494;2023-05-07T12:07:24;6.00;;;1.73;;
74213;SDS011;62576;55.694;37.494;2023-05-07T12:09:56;6.72;;;2.40;;
74213;SDS011;62576;55.694;37.494;2023-05-07T12:12:26;2.65;;;1.80;;
74213;SDS011;62576;55.694;37.494;2023-05-07T12:14:56;4.63;;;1.85;;
74213;SDS011;62576;55.694;37.494;2023-05-07T12:17:27;3.92;;;1.63;;
74213;SDS011;62576;55.694;37.494;2023-05-07T12:19:57;5.38;;;1.70;;
74213;SDS011;62576;55.694;37.494;2023-05-07T12:22:28;3.90;;;1.90;;
74213;SDS011;62576;55.694;37.494;2023-05-07T12:24:59;7.10;;;1.75;;
74213;SDS011;62576;55.694;37.494;2023-05-07T12:27:30;11.55;;;3.65;;
74213;SDS011;62576;55.694;37.494;2023-05-07T12:30:00;5.82;;;1.95;;
74213;SDS011;62576;55.694;37.494;2023-05-07T12:32:30;2.90;;;1.77;;
74213;SDS011;62576;55.694;37.494;2023-05-07T12:35:05;4.30;;;1.90;;
74213;SDS011;62576;55.694;37.494;2023-05-07T12:37:36;2.70;;;1.83;;
74213;SDS011;62576;55.694;37.494;2023-05-07T12:40:08;3.20;;;1.83;;
74213;SDS011;62576;55.694;37.494;2023-05-07T12:45:08;3.38;;;1.90;;
74213;SDS011;62576;55.694;37.494;2023-05-07T12:47:39;3.83;;;1.80;;
74213;SDS011;62576;55.694;37.494;2023-05-07T12:50:09;3.00;;;1.80;;
74213;SDS011;62576;55.694;37.494;2023-05-07T12:52:39;6.43;;;2.13;;
74213;SDS011;62576;55.694;37.494;2023-05-07T12:55:12;3.08;;;1.77;;
74213;SDS011;62576;55.694;37.494;2023-05-07T12:57:45;4.05;;;1.95;;
74213;SDS011;62576;55.694;37.494;2023-05-07T13:00:31;4.70;;;1.98;;
74213;SDS011;62576;55.694;37.494;2023-05-07T13:03:02;5.25;;;2.10;;
74213;SDS011;62576;55.694;37.494;2023-05-07T13:05:32;3.58;;;2.00;;
74213;SDS011;62576;55.694;37.494;2023-05-07T13:08:03;2.97;;;1.95;;
74213;SDS011;62576;55.694;37.494;2023-05-07T13:10:35;6.88;;;2.30;;
74213;SDS011;62576;55.694;37.494;2023-05-07T13:13:05;3.95;;;1.90;;
74213;SDS011;62576;55.694;37.494;2023-05-07T13:15:35;5.22;;;2.00;;
74213;SDS011;62576;55.694;37.494;2023-05-07T13:18:05;4.85;;;1.92;;
74213;SDS011;62576;55.694;37.494;2023-05-07T13:20:35;11.05;;;2.20;;
74213;SDS011;62576;55.694;37.494;2023-05-07T13:23:06;4.57;;;1.95;;
74213;SDS011;62576;55.694;37.494;2023-05-07T13:25:37;3.60;;;2.22;;
74213;SDS011;62576;55.694;37.494;2023-05-07T13:28:09;3.97;;;2.13;;
74213;SDS011;62576;55.694;37.494;2023-05-07T13:30:39;4.13;;;1.98;;
74213;SDS011;62576;55.694;37.494;2023-05-07T13:33:10;2.28;;;1.55;;
74213;SDS011;62576;55.694;37.494;2023-05-07T13:35:40;5.47;;;1.90;;
74213;SDS011;62576;55.694;37.494;2023-05-07T13:38:10;4.93;;;1.70;;
74213;SDS011;62576;55.694;37.494;2023-05-07T13:40:41;3.22;;;1.83;;
74213;SDS011;62576;55.694;37.494;2023-05-07T13:43:11;5.50;;;1.85;;
74213;SDS011;62576;55.694;37.494;2023-05-07T13:45:39;5.20;;;1.98;;
74213;SDS011;62576;55.694;37.494;2023-05-07T13:48:09;3.05;;;1.70;;
74213;SDS011;62576;55.694;37.494;2023-05-07T13:50:39;3.97;;;1.85;;
74213;SDS011;62576;55.694;37.494;2023-05-07T13:53:09;2.97;;;1.73;;
74213;SDS011;62576;55.694;37.494;2023-05-07T13:55:39;7.07;;;1.85;;
74213;SDS011;62576;55.694;37.494;2023-05-07T13:58:11;4.03;;;1.90;;
74213;SDS011;62576;55.694;37.494;2023-05-07T14:00:42;3.53;;;1.80;;
74213;SDS011;62576;55.694;37.494;2023-05-07T14:03:12;4.13;;;1.92;;
74213;SDS011;62576;55.694;37.494;2023-05-07T14:05:43;7.20;;;2.30;;
74213;SDS011;62576;55.694;37.494;2023-05-07T14:08:13;7.32;;;2.50;;
74213;SDS011;62576;55.694;37.494;2023-05-07T14:10:43;5.18;;;2.20;;
74213;SDS011;62576;55.694;37.494;2023-05-07T14:13:15;3.33;;;1.90;;
74213;SDS011;62576;55.694;37.494;2023-05-07T14:15:45;2.45;;;1.80;;
74213;SDS011;62576;55.694;37.494;2023-05-07T14:18:17;4.82;;;1.83;;
74213;SDS011;62576;55.694;37.494;2023-05-07T14:20:47;4.13;;;2.00;;
74213;SDS011;62576;55.694;37.494;2023-05-07T14:23:17;2.67;;;1.80;;
74213;SDS011;62576;55.694;37.494;2023-05-07T14:25:50;3.13;;;2.20;;
74213;SDS011;62576;55.694;37.494;2023-05-07T14:28:21;6.18;;;2.20;;
74213;SDS011;62576;55.694;37.494;2023-05-07T14:30:51;3.45;;;1.88;;
74213;SDS011;62576;55.694;37.494;2023-05-07T14:33:21;3.70;;;2.00;;
74213;SDS011;62576;55.694;37.494;2023-05-07T14:35:51;7.80;;;3.72;;
74213;SDS011;62576;55.694;37.494;2023-05-07T14:38:21;5.57;;;2.40;;
74213;SDS011;62576;55.694;37.494;2023-05-07T14:40:54;3.40;;;2.00;;
74213;SDS011;62576;55.694;37.494;2023-05-07T14:43:25;3.85;;;2.10;;
74213;SDS011;62576;55.694;37.494;2023-05-07T14:45:52;3.63;;;1.98;;
74213;SDS011;62576;55.694;37.494;2023-05-07T14:48:23;4.63;;;2.03;;
74213;SDS011;62576;55.694;37.494;2023-05-07T14:50:54;4.32;;;2.00;;
74213;SDS011;62576;55.694;37.494;2023-05-07T14:53:25;3.70;;;2.10;;
74213;SDS011;62576;55.694;37.494;2023-05-07T14:55:55;2.63;;;1.85;;
74213;SDS011;62576;55.694;37.494;2023-05-07T14:58:26;4.78;;;2.00;;
74213;SDS011;62576;55.694;37.494;2023-05-07T15:00:56;2.63;;;1.88;;
74213;SDS011;62576;55.694;37.494;2023-05-07T15:03:27;3.58;;;2.10;;
74213;SDS011;62576;55.694;37.494;2023-05-07T15:05:57;3.95;;;1.88;;
74213;SDS011;62576;55.694;37.494;2023-05-07T15:08:27;5.80;;;2.10;;
74213;SDS011;62576;55.694;37.494;2023-05-07T15:10:57;4.00;;;2.40;;
74213;SDS011;62576;55.694;37.494;2023-05-07T15:13:28;7.05;;;2.28;;
74213;SDS011;62576;55.694;37.494;2023-05-07T15:15:58;4.85;;;1.90;;
74213;SDS011;62576;55.694;37.494;2023-05-07T15:18:28;6.75;;;2.13;;
74213;SDS011;62576;55.694;37.494;2023-05-07T15:20:58;5.00;;;2.30;;
74213;SDS011;62576;55.694;37.494;2023-05-07T15:23:29;3.80;;;2.25;;
74213;SDS011;62576;55.694;37.494;2023-05-07T15:25:59;8.13;;;2.50;;
74213;SDS011;62576;55.694;37.494;2023-05-07T15:28:31;6.55;;;2.17;;
74213;SDS011;62576;55.694;37.494;2023-05-07T15:31:01;4.97;;;2.10;;
74213;SDS011;62576;55.694;37.494;2023-05-07T15:33:31;3.00;;;1.80;;